< < Back
Terminal Aerodrome Forecast


Current Version              Previous Versions:   1  2  3  4  5  6  7  8  9  

Terminal Aerodrome Forecast

954
FTUS42 KJAX 300243 AAE
TAFJAX
TAF AMD
KJAX 300243Z 3003/3024 VRB03KT P6SM VCTS SCT040CB SCT120 BKN250
     FM300400 00000KT P6SM SCT250
     FM301400 27008KT P6SM SCT035 SCT250
     FM301800 24011KT P6SM VCTS SCT045CB BKN150 BKN250=



Latest METAR

784
SAUS80 KWBC 301400
MTRJAX
METAR KJAX 301356Z VRB06KT 10SM FEW015 FEW040 BKN250 28/23 A3007 RMK AO2
SLP182 T02830233


USA.gov is the U.S. government's official web portal to all federal, state and local government web resources and services.